sensor_id;sensor_type;location;lat;lon;timestamp;pressure;altitude;pressure_sealevel;temperature;humidity
75298;BME280;63896;45.990;18.688;2023-07-13T00:02:44;100439.25;;;23.04;85.00
75298;BME280;63896;45.990;18.688;2023-07-13T00:05:57;100433.91;;;22.99;85.04
75298;BME280;63896;45.990;18.688;2023-07-13T00:09:01;100425.78;;;22.99;85.14
75298;BME280;63896;45.990;18.688;2023-07-13T00:12:04;100431.78;;;22.96;85.08
75298;BME280;63896;45.990;18.688;2023-07-13T00:15:26;100431.59;;;22.93;85.60
75298;BME280;63896;45.990;18.688;2023-07-13T00:18:29;100439.78;;;22.88;85.03
75298;BME280;63896;45.990;18.688;2023-07-13T00:21:33;100430.34;;;22.85;85.55
75298;BME280;63896;45.990;18.688;2023-07-13T00:24:36;100426.31;;;22.83;85.30
75298;BME280;63896;45.990;18.688;2023-07-13T00:27:44;100420.03;;;22.87;84.55
75298;BME280;63896;45.990;18.688;2023-07-13T00:30:47;100426.75;;;22.90;84.13
75298;BME280;63896;45.990;18.688;2023-07-13T00:33:49;100417.84;;;22.89;84.33
75298;BME280;63896;45.990;18.688;2023-07-13T00:36:52;100417.09;;;22.84;84.93
75298;BME280;63896;45.990;18.688;2023-07-13T00:39:56;100413.16;;;22.76;85.10
75298;BME280;63896;45.990;18.688;2023-07-13T00:42:59;100412.94;;;22.72;85.47
75298;BME280;63896;45.990;18.688;2023-07-13T00:46:12;100406.72;;;22.72;85.44
75298;BME280;63896;45.990;18.688;2023-07-13T00:49:19;100401.75;;;22.79;86.16
75298;BME280;63896;45.990;18.688;2023-07-13T00:52:23;100397.81;;;22.71;86.82
75298;BME280;63896;45.990;18.688;2023-07-13T00:55:27;100401.91;;;22.69;86.96
75298;BME280;63896;45.990;18.688;2023-07-13T00:58:32;100404.16;;;22.62;87.29
75298;BME280;63896;45.990;18.688;2023-07-13T01:01:36;100402.13;;;22.54;87.63
75298;BME280;63896;45.990;18.688;2023-07-13T01:04:39;100401.69;;;22.47;88.30
75298;BME280;63896;45.990;18.688;2023-07-13T01:07:43;100400.13;;;22.41;88.53
75298;BME280;63896;45.990;18.688;2023-07-13T01:10:54;100402.63;;;22.37;88.24
75298;BME280;63896;45.990;18.688;2023-07-13T01:13:57;100400.13;;;22.22;88.88
75298;BME280;63896;45.990;18.688;2023-07-13T01:17:00;100406.47;;;22.12;89.24
75298;BME280;63896;45.990;18.688;2023-07-13T01:20:03;100398.44;;;22.07;90.42
75298;BME280;63896;45.990;18.688;2023-07-13T01:23:11;100390.91;;;22.04;90.51
75298;BME280;63896;45.990;18.688;2023-07-13T01:26:15;100388.75;;;22.01;90.39
75298;BME280;63896;45.990;18.688;2023-07-13T01:29:18;100367.44;;;22.00;90.97
75298;BME280;63896;45.990;18.688;2023-07-13T01:32:23;100372.63;;;21.96;91.44
75298;BME280;63896;45.990;18.688;2023-07-13T01:35:30;100370.16;;;22.00;92.05
75298;BME280;63896;45.990;18.688;2023-07-13T01:38:34;100374.16;;;22.02;92.16
75298;BME280;63896;45.990;18.688;2023-07-13T01:41:37;100364.38;;;22.06;92.12
75298;BME280;63896;45.990;18.688;2023-07-13T01:44:40;100367.88;;;22.07;91.76
75298;BME280;63896;45.990;18.688;2023-07-13T01:47:43;100368.97;;;22.06;91.66
75298;BME280;63896;45.990;18.688;2023-07-13T01:50:47;100362.06;;;22.18;91.72
75298;BME280;63896;45.990;18.688;2023-07-13T01:53:50;100359.94;;;22.15;91.33
75298;BME280;63896;45.990;18.688;2023-07-13T01:56:53;100352.84;;;22.19;90.90
75298;BME280;63896;45.990;18.688;2023-07-13T01:59:56;100344.81;;;22.14;91.15
75298;BME280;63896;45.990;18.688;2023-07-13T02:02:59;100353.78;;;21.91;91.79
75298;BME280;63896;45.990;18.688;2023-07-13T02:06:02;100349.75;;;21.65;93.39
75298;BME280;63896;45.990;18.688;2023-07-13T02:09:05;100353.59;;;21.59;93.99
75298;BME280;63896;45.990;18.688;2023-07-13T02:12:09;100350.50;;;21.47;94.26
75298;BME280;63896;45.990;18.688;2023-07-13T02:15:12;100362.16;;;21.42;95.03
75298;BME280;63896;45.990;18.688;2023-07-13T02:18:14;100363.78;;;21.14;96.63
75298;BME280;63896;45.990;18.688;2023-07-13T02:21:20;100362.28;;;20.98;97.86
75298;BME280;63896;45.990;18.688;2023-07-13T02:24:23;100361.53;;;20.92;98.23
75298;BME280;63896;45.990;18.688;2023-07-13T02:31:44;100326.94;;;21.00;98.24
75298;BME280;63896;45.990;18.688;2023-07-13T02:34:47;100327.31;;;20.88;99.23
75298;BME280;63896;45.990;18.688;2023-07-13T02:37:49;100337.09;;;20.79;100.00
75298;BME280;63896;45.990;18.688;2023-07-13T02:40:53;100337.13;;;20.74;100.00
75298;BME280;63896;45.990;18.688;2023-07-13T02:43:58;100340.13;;;20.72;100.00
75298;BME280;63896;45.990;18.688;2023-07-13T02:47:06;100339.28;;;20.77;100.00
75298;BME280;63896;45.990;18.688;2023-07-13T02:50:09;100348.41;;;20.81;100.00
75298;BME280;63896;45.990;18.688;2023-07-13T02:53:12;100347.88;;;20.79;100.00
75298;BME280;63896;45.990;18.688;2023-07-13T02:56:15;100347.00;;;20.88;100.00
75298;BME280;63896;45.990;18.688;2023-07-13T02:59:19;100346.44;;;20.91;100.00
75298;BME280;63896;45.990;18.688;2023-07-13T03:02:22;100339.97;;;20.87;100.00
75298;BME280;63896;45.990;18.688;2023-07-13T03:05:25;100347.28;;;20.87;100.00
75298;BME280;63896;45.990;18.688;2023-07-13T03:08:28;100354.31;;;20.83;100.00
75298;BME280;63896;45.990;18.688;2023-07-13T03:11:31;100361.56;;;20.87;100.00
75298;BME280;63896;45.990;18.688;2023-07-13T03:15:00;100359.44;;;20.84;100.00
75298;BME280;63896;45.990;18.688;2023-07-13T03:18:03;100360.75;;;20.87;100.00
75298;BME280;63896;45.990;18.688;2023-07-13T03:21:07;100370.94;;;20.95;100.00
75298;BME280;63896;45.990;18.688;2023-07-13T03:24:10;100368.22;;;21.00;100.00
75298;BME280;63896;45.990;18.688;2023-07-13T03:27:15;100365.75;;;21.04;100.00
75298;BME280;63896;45.990;18.688;2023-07-13T03:30:18;100367.56;;;21.13;100.00
75298;BME280;63896;45.990;18.688;2023-07-13T03:33:22;100366.66;;;21.23;100.00
75298;BME280;63896;45.990;18.688;2023-07-13T03:36:28;100365.72;;;21.37;100.00
75298;BME280;63896;45.990;18.688;2023-07-13T03:39:35;100364.28;;;21.45;100.00
75298;BME280;63896;45.990;18.688;2023-07-13T03:42:38;100370.38;;;21.56;99.68
75298;BME280;63896;45.990;18.688;2023-07-13T03:45:42;100367.66;;;21.79;97.89
75298;BME280;63896;45.990;18.688;2023-07-13T03:48:46;100374.84;;;21.89;97.82
75298;BME280;63896;45.990;18.688;2023-07-13T03:51:49;100372.53;;;22.01;97.22
75298;BME280;63896;45.990;18.688;2023-07-13T03:54:55;100368.97;;;22.06;97.07
75298;BME280;63896;45.990;18.688;2023-07-13T03:58:29;100375.63;;;22.13;96.75
75298;BME280;63896;45.990;18.688;2023-07-13T04:01:39;100395.56;;;22.17;96.07
75298;BME280;63896;45.990;18.688;2023-07-13T04:04:42;100414.44;;;22.22;95.92
75298;BME280;63896;45.990;18.688;2023-07-13T04:07:45;100446.28;;;22.25;96.03
75298;BME280;63896;45.990;18.688;2023-07-13T04:10:48;100486.19;;;22.33;95.34
75298;BME280;63896;45.990;18.688;2023-07-13T04:13:51;100535.09;;;22.37;94.71
75298;BME280;63896;45.990;18.688;2023-07-13T04:16:54;100551.84;;;22.39;94.20
75298;BME280;63896;45.990;18.688;2023-07-13T04:19:57;100577.91;;;22.54;93.23
75298;BME280;63896;45.990;18.688;2023-07-13T04:23:00;100594.22;;;22.91;88.85
75298;BME280;63896;45.990;18.688;2023-07-13T04:26:04;100551.06;;;23.56;81.80
75298;BME280;63896;45.990;18.688;2023-07-13T04:29:07;100534.97;;;23.78;79.21
75298;BME280;63896;45.990;18.688;2023-07-13T04:32:11;100588.59;;;23.95;78.78
75298;BME280;63896;45.990;18.688;2023-07-13T04:35:14;100579.97;;;23.60;78.35
75298;BME280;63896;45.990;18.688;2023-07-13T04:38:19;100575.75;;;23.36;79.87
75298;BME280;63896;45.990;18.688;2023-07-13T04:41:22;100564.38;;;23.34;80.28
75298;BME280;63896;45.990;18.688;2023-07-13T04:44:24;100550.13;;;23.28;80.80
75298;BME280;63896;45.990;18.688;2023-07-13T04:47:30;100540.41;;;23.27;80.73
75298;BME280;63896;45.990;18.688;2023-07-13T04:50:36;100546.31;;;23.29;79.00
75298;BME280;63896;45.990;18.688;2023-07-13T04:53:39;100540.53;;;23.36;77.55
75298;BME280;63896;45.990;18.688;2023-07-13T04:56:42;100539.09;;;23.43;76.52
75298;BME280;63896;45.990;18.688;2023-07-13T04:59:45;100555.69;;;23.55;75.86
75298;BME280;63896;45.990;18.688;2023-07-13T05:02:48;100575.38;;;23.61;75.07
75298;BME280;63896;45.990;18.688;2023-07-13T05:05:58;100571.09;;;23.73;73.31
75298;BME280;63896;45.990;18.688;2023-07-13T05:09:01;100593.81;;;23.91;71.92
75298;BME280;63896;45.990;18.688;2023-07-13T05:12:04;100608.03;;;23.83;71.02
75298;BME280;63896;45.990;18.688;2023-07-13T05:15:07;100650.19;;;23.76;71.10
75298;BME280;63896;45.990;18.688;2023-07-13T05:18:10;100642.84;;;23.76;71.53
75298;BME280;63896;45.990;18.688;2023-07-13T05:21:13;100610.09;;;23.59;73.53
75298;BME280;63896;45.990;18.688;2023-07-13T05:24:17;100557.38;;;23.51;74.56
75298;BME280;63896;45.990;18.688;2023-07-13T05:27:27;100598.13;;;23.60;74.39
75298;BME280;63896;45.990;18.688;2023-07-13T05:30:30;100594.69;;;23.73;74.35
75298;BME280;63896;45.990;18.688;2023-07-13T05:33:33;100594.41;;;23.88;73.67
75298;BME280;63896;45.990;18.688;2023-07-13T05:36:36;100585.03;;;24.13;73.22
75298;BME280;63896;45.990;18.688;2023-07-13T05:39:39;100558.75;;;24.13;73.48
75298;BME280;63896;45.990;18.688;2023-07-13T05:42:43;100545.19;;;24.13;74.34
75298;BME280;63896;45.990;18.688;2023-07-13T05:45:45;100549.22;;;24.43;73.85
75298;BME280;63896;45.990;18.688;2023-07-13T05:48:48;100557.97;;;24.54;73.34
75298;BME280;63896;45.990;18.688;2023-07-13T05:51:51;100553.94;;;24.24;73.98
75298;BME280;63896;45.990;18.688;2023-07-13T05:54:54;100549.72;;;24.32;74.68
75298;BME280;63896;45.990;18.688;2023-07-13T05:57:59;100556.94;;;24.23;74.27
75298;BME280;63896;45.990;18.688;2023-07-13T06:01:07;100560.25;;;24.33;74.08
75298;BME280;63896;45.990;18.688;2023-07-13T06:04:11;100560.78;;;24.35;74.22
75298;BME280;63896;45.990;18.688;2023-07-13T06:07:14;100559.03;;;24.80;72.50
75298;BME280;63896;45.990;18.688;2023-07-13T06:10:18;100564.09;;;24.87;73.19
75298;BME280;63896;45.990;18.688;2023-07-13T06:13:20;100555.81;;;25.05;72.37
75298;BME280;63896;45.990;18.688;2023-07-13T06:16:23;100556.91;;;25.27;72.00
75298;BME280;63896;45.990;18.688;2023-07-13T06:19:27;100559.00;;;25.30;71.51
75298;BME280;63896;45.990;18.688;2023-07-13T06:22:31;100562.78;;;25.20;70.59
75298;BME280;63896;45.990;18.688;2023-07-13T06:25:33;100561.97;;;25.55;70.45
75298;BME280;63896;45.990;18.688;2023-07-13T06:28:37;100554.03;;;26.21;68.39
75298;BME280;63896;45.990;18.688;2023-07-13T06:31:40;100546.56;;;26.35;67.59
75298;BME280;63896;45.990;18.688;2023-07-13T06:34:43;100534.59;;;26.44;66.96
75298;BME280;63896;45.990;18.688;2023-07-13T06:37:46;100544.13;;;26.81;65.53
75298;BME280;63896;45.990;18.688;2023-07-13T06:40:49;100541.66;;;26.54;66.09
75298;BME280;63896;45.990;18.688;2023-07-13T06:43:52;100547.63;;;26.73;67.20
75298;BME280;63896;45.990;18.688;2023-07-13T06:46:56;100549.94;;;27.14;65.05
75298;BME280;63896;45.990;18.688;2023-07-13T06:49:59;100543.81;;;27.34;64.45
75298;BME280;63896;45.990;18.688;2023-07-13T06:53:01;100540.81;;;27.53;63.23
75298;BME280;63896;45.990;18.688;2023-07-13T06:56:04;100547.03;;;27.19;64.28
75298;BME280;63896;45.990;18.688;2023-07-13T06:59:08;100550.25;;;27.64;63.66
75298;BME280;63896;45.990;18.688;2023-07-13T07:02:11;100561.81;;;27.18;63.02
75298;BME280;63896;45.990;18.688;2023-07-13T07:05:14;100556.19;;;27.32;62.56
75298;BME280;63896;45.990;18.688;2023-07-13T07:08:16;100553.41;;;27.83;62.18
75298;BME280;63896;45.990;18.688;2023-07-13T07:11:23;100543.53;;;28.17;60.55
75298;BME280;63896;45.990;18.688;2023-07-13T07:14:26;100544.09;;;28.31;61.21
75298;BME280;63896;45.990;18.688;2023-07-13T07:17:29;100549.91;;;28.88;58.06
75298;BME280;63896;45.990;18.688;2023-07-13T07:20:32;100536.09;;;29.26;56.89
75298;BME280;63896;45.990;18.688;2023-07-13T07:23:35;100534.75;;;29.53;56.42
75298;BME280;63896;45.990;18.688;2023-07-13T07:26:38;100521.06;;;29.98;54.42
75298;BME280;63896;45.990;18.688;2023-07-13T07:29:47;100515.72;;;30.13;54.61
75298;BME280;63896;45.990;18.688;2023-07-13T07:33:09;100517.75;;;30.65;53.14
75298;BME280;63896;45.990;18.688;2023-07-13T07:36:13;100516.66;;;31.61;49.88
75298;BME280;63896;45.990;18.688;2023-07-13T07:39:18;100517.44;;;32.40;47.13
75298;BME280;63896;45.990;18.688;2023-07-13T07:42:21;100530.22;;;32.01;47.91
75298;BME280;63896;45.990;18.688;2023-07-13T07:45:27;100537.91;;;32.58;46.82
75298;BME280;63896;45.990;18.688;2023-07-13T07:48:30;100540.06;;;32.84;46.52
75298;BME280;63896;45.990;18.688;2023-07-13T07:51:33;100548.22;;;32.30;47.57
75298;BME280;63896;45.990;18.688;2023-07-13T07:54:36;100551.84;;;32.85;45.92
75298;BME280;63896;45.990;18.688;2023-07-13T07:57:41;100552.69;;;33.85;44.84
75298;BME280;63896;45.990;18.688;2023-07-13T08:00:47;100543.59;;;33.81;43.17
75298;BME280;63896;45.990;18.688;2023-07-13T08:03:53;100550.78;;;34.12;42.38
75298;BME280;63896;45.990;18.688;2023-07-13T08:06:58;100540.94;;;34.33;41.99
75298;BME280;63896;45.990;18.688;2023-07-13T08:10:21;100539.94;;;35.01;40.50
75298;BME280;63896;45.990;18.688;2023-07-13T08:13:51;100538.13;;;33.84;41.85
75298;BME280;63896;45.990;18.688;2023-07-13T08:16:56;100537.09;;;34.94;40.19
75298;BME280;63896;45.990;18.688;2023-07-13T08:19:59;100529.94;;;34.89;39.42
75298;BME280;63896;45.990;18.688;2023-07-13T08:23:02;100539.25;;;35.74;39.38
75298;BME280;63896;45.990;18.688;2023-07-13T08:26:05;100542.03;;;35.11;38.85
75298;BME280;63896;45.990;18.688;2023-07-13T08:29:08;100543.56;;;35.38;38.22
75298;BME280;63896;45.990;18.688;2023-07-13T08:32:11;100549.59;;;35.48;38.51
75298;BME280;63896;45.990;18.688;2023-07-13T08:35:14;100545.91;;;36.10;36.57
75298;BME280;63896;45.990;18.688;2023-07-13T08:38:18;100553.78;;;36.63;36.04
75298;BME280;63896;45.990;18.688;2023-07-13T08:41:23;100546.47;;;36.99;35.35
75298;BME280;63896;45.990;18.688;2023-07-13T08:44:34;100542.47;;;36.93;35.11
75298;BME280;63896;45.990;18.688;2023-07-13T08:47:47;100543.22;;;38.19;32.83
75298;BME280;63896;45.990;18.688;2023-07-13T08:51:00;100545.59;;;38.17;33.65
75298;BME280;63896;45.990;18.688;2023-07-13T08:54:19;100555.94;;;35.52;37.08
75298;BME280;63896;45.990;18.688;2023-07-13T08:57:31;100550.47;;;35.55;37.41
75298;BME280;63896;45.990;18.688;2023-07-13T09:00:54;100546.78;;;36.76;35.23
75298;BME280;63896;45.990;18.688;2023-07-13T09:04:14;100548.69;;;36.14;35.51
75298;BME280;63896;45.990;18.688;2023-07-13T09:07:29;100554.66;;;36.78;34.83
75298;BME280;63896;45.990;18.688;2023-07-13T09:10:53;100541.94;;;36.62;35.04
75298;BME280;63896;45.990;18.688;2023-07-13T09:14:13;100548.88;;;35.54;37.12
75298;BME280;63896;45.990;18.688;2023-07-13T09:17:28;100551.53;;;36.24;36.13
75298;BME280;63896;45.990;18.688;2023-07-13T09:20:51;100547.16;;;36.78;35.92
75298;BME280;63896;45.990;18.688;2023-07-13T09:23:59;100538.81;;;38.56;31.84
75298;BME280;63896;45.990;18.688;2023-07-13T09:27:33;100538.84;;;38.25;31.61
75298;BME280;63896;45.990;18.688;2023-07-13T09:30:58;100531.28;;;38.60;30.72
75298;BME280;63896;45.990;18.688;2023-07-13T09:34:09;100524.59;;;38.01;31.55
75298;BME280;63896;45.990;18.688;2023-07-13T09:37:12;100532.13;;;38.26;32.16
75298;BME280;63896;45.990;18.688;2023-07-13T09:40:52;100539.06;;;40.29;29.03
75298;BME280;63896;45.990;18.688;2023-07-13T09:44:14;100540.38;;;38.68;32.00
75298;BME280;63896;45.990;18.688;2023-07-13T09:47:19;100546.78;;;38.40;31.18
75298;BME280;63896;45.990;18.688;2023-07-13T09:50:25;100545.16;;;39.58;30.05
75298;BME280;63896;45.990;18.688;2023-07-13T09:53:30;100543.09;;;40.21;29.16
75298;BME280;63896;45.990;18.688;2023-07-13T09:56:33;100547.59;;;40.49;28.06
75298;BME280;63896;45.990;18.688;2023-07-13T09:59:41;100535.13;;;39.75;29.37
75298;BME280;63896;45.990;18.688;2023-07-13T10:06:20;100528.53;;;39.55;29.80
75298;BME280;63896;45.990;18.688;2023-07-13T10:09:28;100520.59;;;40.83;28.06
75298;BME280;63896;45.990;18.688;2023-07-13T10:12:36;100507.81;;;40.52;29.05
75298;BME280;63896;45.990;18.688;2023-07-13T10:15:40;100505.88;;;40.86;28.19
75298;BME280;63896;45.990;18.688;2023-07-13T10:18:55;100496.22;;;41.24;27.47
75298;BME280;63896;45.990;18.688;2023-07-13T10:22:09;100488.44;;;40.04;29.41
75298;BME280;63896;45.990;18.688;2023-07-13T10:25:19;100492.81;;;41.10;28.72
75298;BME280;63896;45.990;18.688;2023-07-13T10:28:28;100494.66;;;41.73;27.11
75298;BME280;63896;45.990;18.688;2023-07-13T10:31:32;100501.78;;;41.24;26.97
75298;BME280;63896;45.990;18.688;2023-07-13T10:34:35;100492.84;;;40.76;27.98
75298;BME280;63896;45.990;18.688;2023-07-13T10:41:04;100496.75;;;41.43;26.91
75298;BME280;63896;45.990;18.688;2023-07-13T10:44:19;100489.25;;;41.90;27.12
75298;BME280;63896;45.990;18.688;2023-07-13T10:47:24;100488.53;;;41.59;27.83
75298;BME280;63896;45.990;18.688;2023-07-13T10:50:28;100477.81;;;41.80;26.75
75298;BME280;63896;45.990;18.688;2023-07-13T10:53:37;100477.72;;;41.88;27.12
75298;BME280;63896;45.990;18.688;2023-07-13T10:56:45;100473.19;;;41.97;27.37
75298;BME280;63896;45.990;18.688;2023-07-13T11:00:16;100461.03;;;41.07;28.13
75298;BME280;63896;45.990;18.688;2023-07-13T11:03:22;100466.75;;;40.29;28.74
75298;BME280;63896;45.990;18.688;2023-07-13T11:09:37;100471.28;;;40.50;30.12
75298;BME280;63896;45.990;18.688;2023-07-13T11:12:53;100479.44;;;40.98;29.43
75298;BME280;63896;45.990;18.688;2023-07-13T11:15:56;100476.75;;;40.60;29.82
75298;BME280;63896;45.990;18.688;2023-07-13T11:25:25;100486.03;;;41.41;28.41
75298;BME280;63896;45.990;18.688;2023-07-13T11:28:31;100484.84;;;41.65;28.16
75298;BME280;63896;45.990;18.688;2023-07-13T11:31:35;100487.63;;;41.65;27.52
75298;BME280;63896;45.990;18.688;2023-07-13T11:34:39;100487.44;;;42.65;25.76
75298;BME280;63896;45.990;18.688;2023-07-13T11:37:42;100492.19;;;42.02;26.31
75298;BME280;63896;45.990;18.688;2023-07-13T11:40:48;100488.94;;;41.84;27.08
75298;BME280;63896;45.990;18.688;2023-07-13T11:44:12;100482.53;;;41.60;26.48
75298;BME280;63896;45.990;18.688;2023-07-13T11:47:21;100481.97;;;39.73;29.83
75298;BME280;63896;45.990;18.688;2023-07-13T11:50:25;100470.06;;;39.69;30.27
75298;BME280;63896;45.990;18.688;2023-07-13T11:53:30;100470.22;;;41.85;27.53
75298;BME280;63896;45.990;18.688;2023-07-13T11:56:37;100472.56;;;41.63;27.56
75298;BME280;63896;45.990;18.688;2023-07-13T11:59:40;100469.13;;;41.52;27.55
75298;BME280;63896;45.990;18.688;2023-07-13T12:02:47;100472.03;;;40.20;29.48
75298;BME280;63896;45.990;18.688;2023-07-13T12:06:00;100476.16;;;38.63;32.16
75298;BME280;63896;45.990;18.688;2023-07-13T12:09:11;100462.97;;;36.68;35.23
75298;BME280;63896;45.990;18.688;2023-07-13T12:12:22;100476.28;;;37.81;33.73
75298;BME280;63896;45.990;18.688;2023-07-13T12:15:34;100475.06;;;39.33;30.97
75298;BME280;63896;45.990;18.688;2023-07-13T12:18:39;100485.19;;;40.83;28.74
75298;BME280;63896;45.990;18.688;2023-07-13T12:21:43;100482.22;;;40.30;29.83
75298;BME280;63896;45.990;18.688;2023-07-13T12:24:47;100483.41;;;38.14;31.91
75298;BME280;63896;45.990;18.688;2023-07-13T12:27:51;100472.25;;;39.40;30.38
75298;BME280;63896;45.990;18.688;2023-07-13T12:30:58;100472.44;;;39.74;29.90
75298;BME280;63896;45.990;18.688;2023-07-13T12:34:10;100482.38;;;39.64;30.00
75298;BME280;63896;45.990;18.688;2023-07-13T12:37:14;100478.16;;;40.01;30.16
75298;BME280;63896;45.990;18.688;2023-07-13T12:40:20;100478.06;;;39.60;31.22
75298;BME280;63896;45.990;18.688;2023-07-13T12:43:26;100455.63;;;39.88;30.71
75298;BME280;63896;45.990;18.688;2023-07-13T12:46:29;100459.44;;;40.01;30.02
75298;BME280;63896;45.990;18.688;2023-07-13T12:49:33;100463.28;;;39.15;31.27
75298;BME280;63896;45.990;18.688;2023-07-13T12:52:38;100464.09;;;39.04;31.27
75298;BME280;63896;45.990;18.688;2023-07-13T12:55:53;100466.97;;;39.56;30.46
75298;BME280;63896;45.990;18.688;2023-07-13T12:59:00;100456.66;;;40.76;28.93
75298;BME280;63896;45.990;18.688;2023-07-13T13:02:18;100452.53;;;37.59;33.74
75298;BME280;63896;45.990;18.688;2023-07-13T13:05:26;100451.44;;;35.98;36.54
75298;BME280;63896;45.990;18.688;2023-07-13T13:08:33;100461.03;;;36.83;35.71
75298;BME280;63896;45.990;18.688;2023-07-13T13:11:36;100468.38;;;37.97;33.65
75298;BME280;63896;45.990;18.688;2023-07-13T13:14:38;100461.53;;;38.55;33.11
75298;BME280;63896;45.990;18.688;2023-07-13T13:17:42;100459.19;;;38.43;32.81
75298;BME280;63896;45.990;18.688;2023-07-13T13:20:45;100457.19;;;39.89;30.72
75298;BME280;63896;45.990;18.688;2023-07-13T13:23:48;100463.13;;;39.43;31.71
75298;BME280;63896;45.990;18.688;2023-07-13T13:26:54;100449.31;;;38.45;32.64
75298;BME280;63896;45.990;18.688;2023-07-13T13:30:00;100464.41;;;37.52;34.29
75298;BME280;63896;45.990;18.688;2023-07-13T13:33:08;100459.09;;;36.91;35.82
75298;BME280;63896;45.990;18.688;2023-07-13T13:36:16;100445.50;;;35.96;36.82
75298;BME280;63896;45.990;18.688;2023-07-13T13:39:23;100448.31;;;35.55;38.58
75298;BME280;63896;45.990;18.688;2023-07-13T13:42:26;100446.69;;;34.51;39.62
75298;BME280;63896;45.990;18.688;2023-07-13T13:45:31;100435.13;;;35.01;39.67
75298;BME280;63896;45.990;18.688;2023-07-13T13:48:37;100437.56;;;35.06;39.63
75298;BME280;63896;45.990;18.688;2023-07-13T13:51:44;100416.78;;;34.23;40.81
75298;BME280;63896;45.990;18.688;2023-07-13T13:54:47;100423.81;;;34.76;40.44
75298;BME280;63896;45.990;18.688;2023-07-13T13:57:50;100415.78;;;34.34;40.65
75298;BME280;63896;45.990;18.688;2023-07-13T14:00:53;100401.16;;;33.78;41.88
75298;BME280;63896;45.990;18.688;2023-07-13T14:03:55;100389.31;;;33.74;42.66
75298;BME280;63896;45.990;18.688;2023-07-13T14:06:58;100396.50;;;32.94;44.52
75298;BME280;63896;45.990;18.688;2023-07-13T14:10:01;100392.59;;;33.37;43.81
75298;BME280;63896;45.990;18.688;2023-07-13T14:13:04;100398.03;;;33.34;43.92
75298;BME280;63896;45.990;18.688;2023-07-13T14:16:15;100408.06;;;32.46;44.67
75298;BME280;63896;45.990;18.688;2023-07-13T14:19:20;100415.97;;;33.05;43.42
75298;BME280;63896;45.990;18.688;2023-07-13T14:22:26;100414.72;;;33.44;42.54
75298;BME280;63896;45.990;18.688;2023-07-13T14:25:30;100418.38;;;33.71;42.76
75298;BME280;63896;45.990;18.688;2023-07-13T14:28:38;100424.16;;;33.01;43.29
75298;BME280;63896;45.990;18.688;2023-07-13T14:31:44;100419.44;;;33.02;43.38
75298;BME280;63896;45.990;18.688;2023-07-13T14:34:47;100420.22;;;32.10;44.76
75298;BME280;63896;45.990;18.688;2023-07-13T14:37:50;100431.59;;;31.61;45.67
75298;BME280;63896;45.990;18.688;2023-07-13T14:40:53;100431.72;;;31.37;46.03
75298;BME280;63896;45.990;18.688;2023-07-13T14:43:56;100449.84;;;31.26;46.23
75298;BME280;63896;45.990;18.688;2023-07-13T14:47:02;100456.53;;;32.19;44.68
75298;BME280;63896;45.990;18.688;2023-07-13T14:50:15;100473.34;;;31.86;46.00
75298;BME280;63896;45.990;18.688;2023-07-13T14:53:19;100461.19;;;31.40;45.80
75298;BME280;63896;45.990;18.688;2023-07-13T14:56:22;100444.78;;;31.72;45.50
75298;BME280;63896;45.990;18.688;2023-07-13T14:59:25;100457.97;;;31.82;45.52
75298;BME280;63896;45.990;18.688;2023-07-13T15:02:33;100460.81;;;31.70;46.29
75298;BME280;63896;45.990;18.688;2023-07-13T15:05:37;100453.00;;;31.87;46.64
75298;BME280;63896;45.990;18.688;2023-07-13T15:08:40;100448.72;;;32.05;46.10
75298;BME280;63896;45.990;18.688;2023-07-13T15:11:50;100441.03;;;31.95;46.96
75298;BME280;63896;45.990;18.688;2023-07-13T15:14:52;100451.94;;;31.92;46.55
75298;BME280;63896;45.990;18.688;2023-07-13T15:17:57;100440.41;;;32.02;45.93
75298;BME280;63896;45.990;18.688;2023-07-13T15:21:00;100447.50;;;32.03;45.63
75298;BME280;63896;45.990;18.688;2023-07-13T15:24:05;100462.03;;;32.03;45.55
75298;BME280;63896;45.990;18.688;2023-07-13T15:27:11;100455.00;;;32.06;45.34
75298;BME280;63896;45.990;18.688;2023-07-13T15:30:15;100452.13;;;32.15;44.92
75298;BME280;63896;45.990;18.688;2023-07-13T15:33:24;100466.72;;;31.56;46.33
75298;BME280;63896;45.990;18.688;2023-07-13T15:36:28;100479.19;;;31.53;46.39
75298;BME280;63896;45.990;18.688;2023-07-13T15:39:34;100500.00;;;31.54;46.76
75298;BME280;63896;45.990;18.688;2023-07-13T15:42:44;100514.88;;;31.53;46.31
75298;BME280;63896;45.990;18.688;2023-07-13T15:45:48;100505.97;;;31.44;46.96
75298;BME280;63896;45.990;18.688;2023-07-13T15:48:52;100502.56;;;31.19;48.75
75298;BME280;63896;45.990;18.688;2023-07-13T15:51:56;100512.22;;;30.89;49.09
75298;BME280;63896;45.990;18.688;2023-07-13T15:55:00;100502.22;;;30.69;48.77
75298;BME280;63896;45.990;18.688;2023-07-13T15:58:03;100491.53;;;30.03;50.55
75298;BME280;63896;45.990;18.688;2023-07-13T16:01:10;100498.13;;;29.90;50.28
75298;BME280;63896;45.990;18.688;2023-07-13T16:04:13;100499.44;;;29.60;50.69
75298;BME280;63896;45.990;18.688;2023-07-13T16:07:17;100489.81;;;29.42;51.68
75298;BME280;63896;45.990;18.688;2023-07-13T16:10:41;100503.66;;;29.04;52.94
75298;BME280;63896;45.990;18.688;2023-07-13T16:13:44;100519.50;;;29.10;53.07
75298;BME280;63896;45.990;18.688;2023-07-13T16:16:58;100529.91;;;29.17;53.25
75298;BME280;63896;45.990;18.688;2023-07-13T16:20:02;100504.59;;;29.08;53.47
75298;BME280;63896;45.990;18.688;2023-07-13T16:23:08;100506.09;;;28.97;54.00